Time;durP1;ratioP1;P1;durP2;ratioP2;P2;SDS_P1;SDS_P2;PMS_P1;PMS_P2;Temp;Humidity;BMP_temperature;BMP_pressure;BME280_temperature;BME280_humidity;BME280_pressure;Samples;Min_cycle;Max_cycle;Signal;HPM_P1;HPM_P2
2023/05/09 00:02:17;;;;;;;12.13;11.23;;;;;;;13.32;100.00;99855.84;5013468;28;20657;-64
2023/05/09 00:04:44;;;;;;;11.83;11.13;;;;;;;13.36;100.00;99841.09;5026157;28;20665;-65
2023/05/09 00:07:11;;;;;;;11.80;10.90;;;;;;;13.36;100.00;99841.88;5032090;28;20204;-64
2023/05/09 00:09:37;;;;;;;12.20;11.37;;;;;;;13.38;100.00;99839.84;5033073;28;20198;-66
2023/05/09 00:12:05;;;;;;;12.17;11.10;;;;;;;13.45;100.00;99846.00;5033285;28;20201;-64
2023/05/09 00:14:32;;;;;;;12.37;11.47;;;;;;;13.51;100.00;99847.84;5033241;28;20255;-65
2023/05/09 00:17:00;;;;;;;13.97;12.53;;;;;;;13.48;100.00;99842.91;5032951;28;20363;-65
2023/05/09 00:19:27;;;;;;;14.13;13.03;;;;;;;13.33;100.00;99846.81;5032955;28;20198;-64
2023/05/09 00:21:54;;;;;;;13.60;12.47;;;;;;;13.36;100.00;99839.22;5032808;28;20193;-64
2023/05/09 00:24:20;;;;;;;13.77;12.77;;;;;;;13.47;100.00;99843.94;5032761;28;20201;-65
2023/05/09 00:26:47;;;;;;;14.33;13.00;;;;;;;13.52;100.00;99846.00;5033030;28;20266;-65
2023/05/09 00:29:14;;;;;;;14.37;13.10;;;;;;;13.61;100.00;99848.25;5032808;28;20767;-64
2023/05/09 00:31:40;;;;;;;14.27;13.07;;;;;;;13.67;100.00;99844.75;5032901;28;20251;-65
2023/05/09 00:34:08;;;;;;;13.70;12.43;;;;;;;13.69;100.00;99842.69;5032972;28;20255;-65
2023/05/09 00:36:35;;;;;;;14.07;13.00;;;;;;;13.55;100.00;99858.91;5032459;28;20217;-65
2023/05/09 00:39:02;;;;;;;13.70;12.57;;;;;;;13.50;100.00;99854.22;5032832;28;20197;-65
2023/05/09 00:41:28;;;;;;;14.03;12.83;;;;;;;13.53;100.00;99847.63;5032786;28;20189;-65
2023/05/09 00:43:55;;;;;;;13.77;12.50;;;;;;;13.55;100.00;99842.91;5032786;28;20247;-65
2023/05/09 00:46:23;;;;;;;14.23;13.10;;;;;;;13.76;100.00;99870.19;5032784;28;20262;-65
2023/05/09 00:48:51;;;;;;;13.43;12.13;;;;;;;13.72;100.00;99863.63;5032669;28;20251;-65
2023/05/09 00:51:20;;;;;;;12.07;11.07;;;;;;;13.73;100.00;99862.59;5032566;28;20193;-64
2023/05/09 00:53:46;;;;;;;14.07;12.67;;;;;;;13.60;100.00;99865.28;5032586;28;20199;-64
2023/05/09 00:56:14;;;;;;;13.00;11.90;;;;;;;13.70;100.00;99863.03;5032431;28;20217;-65
2023/05/09 00:58:41;;;;;;;12.57;11.47;;;;;;;13.82;100.00;99869.38;5032506;28;20218;-65
2023/05/09 01:01:08;;;;;;;14.07;12.93;;;;;;;13.90;100.00;99871.00;5032456;28;20207;-65
2023/05/09 01:03:35;;;;;;;13.60;12.40;;;;;;;13.98;100.00;99868.13;5029176;28;20282;-65
2023/05/09 01:06:10;;;;;;;12.10;11.30;;;;;;;14.02;100.00;99872.84;5012838;28;20206;-65
2023/05/09 01:08:46;;;;;;;12.07;11.17;;;;;;;14.04;100.00;99870.78;5012696;28;20189;-65
2023/05/09 01:11:25;;;;;;;10.93;10.07;;;;;;;14.06;100.00;99875.91;5012596;28;20244;-64
2023/05/09 01:14:01;;;;;;;11.43;10.60;;;;;;;14.02;100.00;99870.19;5012865;28;20182;-65
2023/05/09 01:16:33;;;;;;;11.43;10.47;;;;;;;14.00;100.00;99876.72;5012271;28;20213;-65
2023/05/09 01:19:17;;;;;;;11.77;10.67;;;;;;;14.00;100.00;99877.56;5012382;28;20190;-65
2023/05/09 01:21:47;;;;;;;12.03;10.80;;;;;;;13.93;100.00;99887.44;5012123;28;20182;-65
2023/05/09 01:24:43;;;;;;;11.67;9.97;;;;;;;13.86;100.00;99877.78;5012428;28;20259;-65
2023/05/09 01:27:28;;;;;;;11.37;10.47;;;;;;;13.93;100.00;99881.28;5012416;28;20201;-65
2023/05/09 01:29:59;;;;;;;11.20;10.17;;;;;;;13.84;100.00;99867.31;5012549;28;20299;-65
2023/05/09 01:32:28;;;;;;;12.47;11.00;;;;;;;13.78;100.00;99878.84;5012069;28;20613;-65
2023/05/09 01:34:59;;;;;;;11.23;10.37;;;;;;;13.79;100.00;99880.47;5012387;28;20190;-65
2023/05/09 01:37:30;;;;;;;12.17;11.00;;;;;;;13.84;100.00;99870.00;5012342;28;20206;-65
2023/05/09 01:40:00;;;;;;;10.80;9.77;;;;;;;13.90;100.00;99871.84;5012454;28;20264;-65
2023/05/09 01:42:30;;;;;;;10.47;9.63;;;;;;;13.97;100.00;99877.97;5012264;28;20252;-65
2023/05/09 01:44:59;;;;;;;10.33;9.73;;;;;;;13.92;100.00;99883.13;5012281;28;20564;-65
2023/05/09 01:47:27;;;;;;;9.60;8.87;;;;;;;13.87;100.00;99882.94;5011980;28;20233;-65
2023/05/09 01:49:55;;;;;;;9.13;8.43;;;;;;;13.85;100.00;99879.63;5011944;28;20586;-64
2023/05/09 01:52:24;;;;;;;10.20;9.40;;;;;;;13.77;100.00;99881.72;5012130;28;20198;-64
2023/05/09 01:54:51;;;;;;;10.20;9.33;;;;;;;13.74;100.00;99882.97;5012189;28;20643;-65
2023/05/09 01:57:19;;;;;;;9.70;8.90;;;;;;;13.82;100.00;99880.06;5012042;28;20292;-65
2023/05/09 01:59:47;;;;;;;10.50;9.70;;;;;;;13.88;100.00;99887.25;5011783;28;20194;-65
2023/05/09 02:02:16;;;;;;;9.17;8.57;;;;;;;13.93;100.00;99882.09;5012030;28;20221;-65
2023/05/09 02:04:43;;;;;;;9.30;8.60;;;;;;;13.85;100.00;99890.31;5024552;28;20219;-64
2023/05/09 02:07:12;;;;;;;10.30;9.40;;;;;;;13.83;100.00;99886.22;5031664;28;20201;-65
2023/05/09 02:09:39;;;;;;;10.07;9.43;;;;;;;13.82;100.00;99890.75;5031456;28;20193;-64
2023/05/09 02:12:06;;;;;;;10.57;9.87;;;;;;;13.85;100.00;99890.31;5031390;28;20657;-64
2023/05/09 02:14:33;;;;;;;10.93;10.10;;;;;;;13.85;100.00;99895.66;5031631;28;20259;-64
2023/05/09 02:17:05;;;;;;;11.30;10.30;;;;;;;13.83;100.00;99892.38;5031519;28;20233;-65
2023/05/09 02:19:34;;;;;;;10.57;9.43;;;;;;;13.89;100.00;99896.88;5031380;28;20281;-64
2023/05/09 02:22:03;;;;;;;10.33;9.63;;;;;;;13.80;100.00;99876.78;5031578;28;20624;-65
2023/05/09 02:24:32;;;;;;;11.30;9.43;;;;;;;13.90;100.00;99897.72;5031319;28;20284;-65
2023/05/09 02:26:59;;;;;;;10.60;9.67;;;;;;;13.87;100.00;99893.63;5031539;28;20284;-65
2023/05/09 02:29:37;;;;;;;11.20;10.37;;;;;;;13.79;100.00;99893.81;5031686;28;20679;-65
2023/05/09 02:32:05;;;;;;;10.47;9.73;;;;;;;13.77;100.00;99897.72;5035197;28;20205;-65
2023/05/09 02:34:34;;;;;;;10.90;9.90;;;;;;;13.78;100.00;99900.19;5034866;28;20727;-65
2023/05/09 02:37:01;;;;;;;10.27;9.37;;;;;;;13.81;100.00;99905.09;5035005;28;20229;-65
2023/05/09 02:39:28;;;;;;;11.10;10.03;;;;;;;13.88;100.00;99905.94;5034815;28;20230;-64
2023/05/09 02:41:54;;;;;;;11.60;10.60;;;;;;;13.83;100.00;99908.41;5034950;28;20194;-65
2023/05/09 02:44:21;;;;;;;13.30;10.40;;;;;;;13.73;100.00;99910.66;5034966;28;20201;-65
2023/05/09 02:46:47;;;;;;;12.67;11.33;;;;;;;13.69;100.00;99913.97;5034890;28;20294;-65
2023/05/09 02:49:14;;;;;;;11.07;9.97;;;;;;;13.67;100.00;99908.81;5034968;28;20263;-65
2023/05/09 02:51:42;;;;;;;11.60;10.43;;;;;;;13.74;100.00;99908.81;5034756;28;20263;-65
2023/05/09 02:54:09;;;;;;;14.43;12.93;;;;;;;13.77;100.00;99914.56;5034501;28;20193;-65
2023/05/09 02:56:35;;;;;;;13.27;11.57;;;;;;;13.77;100.00;99903.88;5034305;28;20224;-65
2023/05/09 02:59:02;;;;;;;11.33;10.37;;;;;;;13.75;100.00;99916.63;5034436;28;20826;-65
2023/05/09 03:01:29;;;;;;;11.40;10.23;;;;;;;13.77;100.00;99909.22;5034519;28;20654;-65
2023/05/09 03:03:56;;;;;;;11.10;10.00;;;;;;;13.81;100.00;99907.78;5028508;28;20190;-65
2023/05/09 03:06:22;;;;;;;16.57;14.87;;;;;;;13.82;100.00;99912.13;5014885;28;20194;-65
2023/05/09 03:08:50;;;;;;;14.10;12.60;;;;;;;13.83;100.00;99915.59;5014705;28;20198;-64
2023/05/09 03:11:17;;;;;;;13.20;10.10;;;;;;;13.85;100.00;99922.34;5014838;28;20202;-65
2023/05/09 03:13:44;;;;;;;13.03;10.40;;;;;;;13.92;100.00;99927.69;5014257;28;20198;-65
2023/05/09 03:16:13;;;;;;;12.93;11.70;;;;;;;13.92;100.00;99925.84;5014109;28;20198;-65
2023/05/09 03:18:40;;;;;;;13.37;11.03;;;;;;;13.89;100.00;99931.59;5014422;28;20222;-65
2023/05/09 03:21:07;;;;;;;11.00;10.20;;;;;;;13.92;100.00;99928.53;5014330;28;20209;-65
2023/05/09 03:23:33;;;;;;;11.67;10.70;;;;;;;14.01;100.00;99937.16;5014424;28;20194;-65
2023/05/09 03:26:01;;;;;;;11.77;10.60;;;;;;;13.94;100.00;99947.84;5014492;28;20194;-67
2023/05/09 03:28:28;;;;;;;11.70;10.77;;;;;;;13.77;100.00;99946.59;5014183;28;20237;-66
2023/05/09 03:30:55;;;;;;;10.93;10.23;;;;;;;13.71;100.00;99947.44;5013912;28;20183;-65
2023/05/09 03:33:22;;;;;;;11.30;10.50;;;;;;;13.78;100.00;99955.44;5014252;28;20194;-65
2023/05/09 03:35:48;;;;;;;11.53;10.53;;;;;;;13.87;100.00;99957.72;5014259;28;20194;-65
2023/05/09 03:38:15;;;;;;;10.87;9.97;;;;;;;13.79;100.00;99957.91;5013702;28;20221;-66
2023/05/09 03:40:42;;;;;;;13.37;12.10;;;;;;;13.87;100.00;99948.88;5013722;28;20255;-66
2023/05/09 03:43:10;;;;;;;11.87;10.67;;;;;;;13.95;100.00;99954.00;5013788;28;20728;-66
2023/05/09 03:45:37;;;;;;;11.87;10.67;;;;;;;13.80;100.00;99956.88;5012635;28;20205;-67
2023/05/09 03:48:07;;;;;;;11.27;10.47;;;;;;;13.80;100.00;99951.53;5019614;28;20283;-66
2023/05/09 03:50:34;;;;;;;11.33;10.50;;;;;;;13.76;100.00;99965.53;5033240;28;20185;-67
2023/05/09 03:53:00;;;;;;;12.27;11.27;;;;;;;13.75;100.00;99970.03;5029863;28;20201;-66
2023/05/09 03:55:27;;;;;;;11.33;10.20;;;;;;;13.80;100.00;99962.22;5033624;28;20205;-66
2023/05/09 03:57:54;;;;;;;11.60;10.60;;;;;;;13.77;100.00;99962.63;5032143;28;20313;-66
2023/05/09 04:00:22;;;;;;;12.43;11.43;;;;;;;13.86;100.00;99966.75;5033578;28;20201;-67
2023/05/09 04:02:49;;;;;;;11.77;10.63;;;;;;;13.68;100.00;99958.50;5033396;28;20193;-66
2023/05/09 04:05:17;;;;;;;11.97;10.70;;;;;;;13.67;100.00;99956.03;5016300;28;20613;-67
2023/05/09 04:07:43;;;;;;;12.77;10.90;;;;;;;13.68;100.00;99958.50;5013723;28;20281;-66
2023/05/09 04:10:11;;;;;;;11.97;10.87;;;;;;;13.48;100.00;99951.53;5013573;28;20197;-66
2023/05/09 04:12:38;;;;;;;13.17;11.83;;;;;;;13.61;100.00;99962.22;5013123;28;20629;-67
2023/05/09 04:15:06;;;;;;;13.00;12.00;;;;;;;13.63;100.00;99958.31;5014097;28;20201;-66
2023/05/09 04:17:34;;;;;;;13.53;11.93;;;;;;;13.63;100.00;99957.47;5026685;28;20224;-66
2023/05/09 04:20:01;;;;;;;13.07;11.90;;;;;;;13.68;100.00;99966.53;5032789;28;20735;-68
2023/05/09 04:22:27;;;;;;;13.97;11.27;;;;;;;13.73;100.00;99969.41;5032274;28;20280;-65
2023/05/09 04:24:55;;;;;;;12.53;11.40;;;;;;;13.73;100.00;99972.06;5031121;28;20189;-66
2023/05/09 04:27:22;;;;;;;13.33;10.90;;;;;;;13.74;100.00;99962.22;5032675;28;20239;-65
2023/05/09 04:29:49;;;;;;;13.10;11.73;;;;;;;13.82;100.00;99973.53;5032536;28;20696;-65
2023/05/09 04:32:16;;;;;;;12.63;11.10;;;;;;;13.82;100.00;99970.88;5032890;28;20197;-66
2023/05/09 04:34:44;;;;;;;14.00;12.00;;;;;;;13.89;100.00;99971.66;5032519;28;20194;-65
2023/05/09 04:37:12;;;;;;;13.43;12.03;;;;;;;13.95;100.00;99970.84;5024297;28;20221;-66
2023/05/09 04:39:38;;;;;;;12.53;11.53;;;;;;;14.01;100.00;99975.38;5012924;28;20594;-65
2023/05/09 04:42:05;;;;;;;12.77;11.57;;;;;;;13.95;100.00;99981.53;5012923;28;20194;-68
2023/05/09 04:44:34;;;;;;;13.57;12.23;;;;;;;13.90;100.00;99973.31;5012502;28;20658;-66
2023/05/09 04:47:01;;;;;;;14.07;12.70;;;;;;;13.89;100.00;99977.00;5012868;28;20212;-65
2023/05/09 04:49:27;;;;;;;13.77;12.67;;;;;;;13.92;100.00;99965.91;5023912;28;20227;-65
2023/05/09 04:51:56;;;;;;;15.13;13.70;;;;;;;13.95;100.00;99970.84;5032186;28;20193;-65
2023/05/09 04:54:22;;;;;;;19.57;14.03;;;;;;;13.94;100.00;99987.09;5031738;28;20193;-65
2023/05/09 04:56:49;;;;;;;14.30;13.10;;;;;;;13.92;100.00;99981.94;5031924;28;20193;-65
2023/05/09 04:59:15;;;;;;;14.43;13.10;;;;;;;13.95;100.00;99980.72;5031557;28;20284;-65
2023/05/09 05:01:42;;;;;;;14.70;13.10;;;;;;;13.96;100.00;99988.50;5015014;28;20752;-65
2023/05/09 05:04:09;;;;;;;14.33;12.83;;;;;;;13.98;100.00;99985.66;5019813;28;20585;-65
2023/05/09 05:06:36;;;;;;;13.73;12.33;;;;;;;14.00;100.00;99988.91;5027414;28;20201;-66
2023/05/09 05:09:04;;;;;;;13.03;11.60;;;;;;;14.02;100.00;99995.72;5029345;28;20259;-67
2023/05/09 05:11:33;;;;;;;12.73;11.77;;;;;;;14.07;100.00;99995.09;5027728;28;20588;-67
2023/05/09 05:14:00;;;;;;;11.87;11.00;;;;;;;14.06;100.00;99994.28;5022435;28;20193;-66
2023/05/09 05:16:27;;;;;;;12.00;10.90;;;;;;;14.01;100.00;99988.72;5021988;28;20266;-66
2023/05/09 05:18:53;;;;;;;11.23;10.20;;;;;;;13.99;100.00;99993.47;5019836;28;20275;-67
2023/05/09 05:21:20;;;;;;;12.40;11.30;;;;;;;14.00;100.00;99994.25;5030254;28;20796;-66
2023/05/09 05:23:47;;;;;;;11.30;10.30;;;;;;;13.90;100.00;100000.03;5022187;28;20265;-67
2023/05/09 05:26:15;;;;;;;11.03;10.03;;;;;;;13.81;100.00;99998.56;5011468;28;20634;-65
2023/05/09 05:28:42;;;;;;;11.67;10.37;;;;;;;13.85;100.00;99997.13;5010391;28;20655;-65
2023/05/09 05:31:08;;;;;;;10.57;9.57;;;;;;;13.72;100.00;100002.47;5011097;28;20206;-66
2023/05/09 05:33:35;;;;;;;12.13;10.77;;;;;;;13.61;100.00;100000.41;5024601;28;20255;-70
2023/05/09 05:36:02;;;;;;;11.93;10.00;;;;;;;13.62;100.00;100004.72;5029696;28;20727;-67
2023/05/09 05:38:28;;;;;;;10.80;9.87;;;;;;;13.64;100.00;100005.31;5029451;28;20692;-66
2023/05/09 05:40:55;;;;;;;11.63;10.53;;;;;;;13.67;100.00;100007.59;5029354;28;20239;-65
2023/05/09 05:43:23;;;;;;;12.50;11.23;;;;;;;13.67;100.00;100004.94;5036203;28;20192;-66
2023/05/09 05:45:50;;;;;;;11.90;9.97;;;;;;;13.76;100.00;100010.91;5050149;28;20266;-66
2023/05/09 05:48:16;;;;;;;12.93;11.63;;;;;;;13.77;100.00;100002.66;5042355;28;20193;-68
2023/05/09 05:50:43;;;;;;;17.60;14.33;;;;;;;13.66;100.00;100013.13;5016184;28;20201;-67
2023/05/09 05:53:10;;;;;;;15.13;13.93;;;;;;;13.68;100.00;100006.56;5029054;28;20258;-66
2023/05/09 05:55:36;;;;;;;17.10;15.07;;;;;;;13.73;100.00;100009.44;5024975;28;20190;-69
2023/05/09 05:58:03;;;;;;;14.37;12.97;;;;;;;13.76;100.00;100009.03;5021686;28;20279;-65
2023/05/09 06:00:31;;;;;;;15.17;12.40;;;;;;;13.77;100.00;100009.88;5021012;28;20255;-66
2023/05/09 06:02:58;;;;;;;16.83;14.17;;;;;;;13.85;100.00;100007.00;5010674;28;20283;-67
2023/05/09 06:05:25;;;;;;;15.97;14.47;;;;;;;13.86;100.00;100012.16;5026377;28;20194;-68
2023/05/09 06:07:51;;;;;;;12.57;11.30;;;;;;;13.79;100.00;99992.63;5032469;28;20209;-64
2023/05/09 06:10:18;;;;;;;13.23;11.87;;;;;;;13.89;100.00;100008.25;5022289;28;20190;-70
2023/05/09 06:12:45;;;;;;;12.20;10.97;;;;;;;13.92;100.00;100014.00;5032048;28;20530;-70
2023/05/09 06:15:12;;;;;;;13.00;11.27;;;;;;;13.90;100.00;100009.88;5024891;28;20201;-67
2023/05/09 06:17:40;;;;;;;12.40;11.40;;;;;;;13.92;100.00;100013.16;5019749;28;20264;-68
2023/05/09 06:20:07;;;;;;;12.97;11.33;;;;;;;13.72;100.00;100007.81;5014006;28;20667;-67
2023/05/09 06:22:34;;;;;;;12.80;11.70;;;;;;;13.79;100.00;100013.16;5014680;28;20244;-68
2023/05/09 06:25:01;;;;;;;13.83;12.63;;;;;;;13.89;100.00;100009.06;5024262;28;20201;-68
2023/05/09 06:27:27;;;;;;;12.47;11.37;;;;;;;13.97;100.00;100011.53;5034348;28;20287;-68
2023/05/09 06:29:54;;;;;;;13.70;12.40;;;;;;;13.87;100.00;100004.94;5030827;28;20278;-71
2023/05/09 06:32:21;;;;;;;12.37;11.27;;;;;;;13.87;100.00;100011.13;5028335;28;20282;-71
2023/05/09 06:34:49;;;;;;;13.80;12.47;;;;;;;13.83;100.00;100003.72;5033408;28;20201;-71
2023/05/09 06:37:15;;;;;;;13.47;11.90;;;;;;;13.79;100.00;100014.00;5034030;28;20204;-71
2023/05/09 06:39:42;;;;;;;19.40;13.97;;;;;;;13.81;100.00;100013.78;5033183;28;20842;-72
2023/05/09 06:42:09;;;;;;;15.57;13.83;;;;;;;13.86;100.00;100017.50;5033799;28;20251;-69
2023/05/09 06:44:36;;;;;;;15.93;14.27;;;;;;;13.74;100.00;100016.44;5025450;28;20192;-68
2023/05/09 06:47:03;;;;;;;14.73;12.70;;;;;;;13.78;100.00;100017.69;5024640;28;20186;-68
2023/05/09 06:49:29;;;;;;;19.40;14.53;;;;;;;13.85;100.00;100007.00;5023216;28;20258;-68
2023/05/09 06:51:57;;;;;;;14.73;13.03;;;;;;;13.88;100.00;100012.75;5023679;28;20681;-67
2023/05/09 06:54:24;;;;;;;15.47;13.50;;;;;;;13.80;100.00;100018.28;5023199;28;20202;-65
2023/05/09 06:56:51;;;;;;;13.40;12.30;;;;;;;13.78;100.00;100009.69;5023426;28;20244;-67
2023/05/09 06:59:18;;;;;;;16.63;13.33;;;;;;;13.91;100.00;100017.69;5023502;28;20257;-67
2023/05/09 07:01:44;;;;;;;15.67;12.47;;;;;;;13.98;100.00;100017.69;5022662;28;20193;-67
2023/05/09 07:04:11;;;;;;;15.27;13.70;;;;;;;13.98;100.00;100029.22;5026023;28;20247;-67
2023/05/09 07:06:38;;;;;;;15.73;13.47;;;;;;;14.03;100.00;100026.75;5025498;28;20198;-68
2023/05/09 07:09:06;;;;;;;14.60;13.10;;;;;;;14.04;100.00;100025.72;5022810;28;20205;-66
2023/05/09 07:11:35;;;;;;;18.17;14.03;;;;;;;13.92;100.00;100027.34;5026277;28;20250;-64
2023/05/09 07:14:02;;;;;;;17.73;14.80;;;;;;;14.01;100.00;100027.97;5034348;28;20196;-66
2023/05/09 07:16:29;;;;;;;20.63;14.83;;;;;;;14.08;100.00;100024.28;5024737;28;20224;-67
2023/05/09 07:18:56;;;;;;;19.53;15.70;;;;;;;14.05;100.00;100035.38;5026547;28;20312;-67
2023/05/09 07:21:22;;;;;;;20.63;16.10;;;;;;;13.99;100.00;100038.88;5028883;28;20268;-67
2023/05/09 07:23:49;;;;;;;18.73;16.40;;;;;;;14.09;100.00;100033.94;5024828;28;20197;-68
2023/05/09 07:26:17;;;;;;;19.97;16.70;;;;;;;14.22;100.00;100030.47;5024581;28;20247;-67
2023/05/09 07:28:44;;;;;;;19.93;17.33;;;;;;;14.25;99.94;100030.88;5015234;28;20222;-68
2023/05/09 07:31:10;;;;;;;21.70;16.80;;;;;;;14.26;99.14;100029.84;5015294;28;20260;-67
2023/05/09 07:33:37;;;;;;;22.20;17.27;;;;;;;14.33;99.64;100030.66;5029039;28;20198;-67
2023/05/09 07:36:04;;;;;;;18.97;16.93;;;;;;;14.42;100.00;100031.28;5014105;28;20275;-68
2023/05/09 07:38:31;;;;;;;26.17;17.87;;;;;;;14.46;99.35;100027.16;5022653;28;20225;-68
2023/05/09 07:40:58;;;;;;;24.47;16.87;;;;;;;14.45;99.51;100029.00;5032443;28;20193;-68
2023/05/09 07:43:26;;;;;;;19.77;14.67;;;;;;;14.41;97.91;100034.97;5033625;28;20696;-67
2023/05/09 07:45:53;;;;;;;18.70;15.23;;;;;;;14.46;99.06;100038.66;5028126;28;20202;-68
2023/05/09 07:48:19;;;;;;;17.30;15.20;;;;;;;14.53;99.26;100036.81;5014216;28;20583;-68
2023/05/09 07:50:46;;;;;;;19.13;14.93;;;;;;;14.54;98.63;100038.44;5013479;28;20248;-68
2023/05/09 07:53:13;;;;;;;20.90;14.27;;;;;;;14.56;98.45;100028.38;5023730;28;20265;-68
2023/05/09 07:55:40;;;;;;;16.30;14.47;;;;;;;14.52;98.25;100037.84;5023916;28;20248;-68
2023/05/09 07:58:06;;;;;;;17.00;15.27;;;;;;;14.52;98.19;100031.66;5013431;28;20198;-68
2023/05/09 08:00:34;;;;;;;17.37;15.33;;;;;;;14.60;98.42;100034.97;5013855;28;20194;-68
2023/05/09 08:03:01;;;;;;;20.67;16.17;;;;;;;14.55;97.57;100037.41;5013602;28;20190;-68
2023/05/09 08:05:28;;;;;;;18.70;16.70;;;;;;;14.58;98.00;100038.88;5032313;28;20221;-68
2023/05/09 08:07:54;;;;;;;19.33;16.17;;;;;;;14.59;97.88;100038.63;5033367;28;20197;-67
2023/05/09 08:10:22;;;;;;;18.00;16.00;;;;;;;14.60;97.63;100045.66;5033401;28;20247;-66
2023/05/09 08:12:49;;;;;;;23.33;18.57;;;;;;;14.59;97.75;100037.84;5032916;28;20204;-67
2023/05/09 08:15:15;;;;;;;21.33;18.23;;;;;;;14.64;97.80;100035.34;5028737;28;20206;-67
2023/05/09 08:17:43;;;;;;;27.63;19.03;;;;;;;14.66;97.64;100036.78;5023288;28;20666;-66
2023/05/09 08:20:12;;;;;;;21.50;17.63;;;;;;;14.61;96.55;100035.75;5015311;28;20280;-67
2023/05/09 08:22:39;;;;;;;25.83;19.53;;;;;;;14.60;96.45;100040.31;5013312;28;20240;-68
2023/05/09 08:25:07;;;;;;;25.87;18.50;;;;;;;14.61;96.80;100036.59;5013537;28;20202;-68
2023/05/09 08:27:33;;;;;;;22.20;19.57;;;;;;;14.65;97.59;100040.50;5015149;28;20201;-68
2023/05/09 08:30:00;;;;;;;21.57;19.13;;;;;;;14.61;96.62;100041.09;5012709;28;20303;-68
2023/05/09 08:32:27;;;;;;;25.00;18.77;;;;;;;14.62;97.05;100038.22;5013251;28;20194;-68
2023/05/09 08:34:55;;;;;;;24.40;18.93;;;;;;;14.72;96.68;100033.28;5012929;28;20194;-68
2023/05/09 08:37:22;;;;;;;21.20;18.60;;;;;;;14.70;96.52;100040.69;5020638;28;20189;-68
2023/05/09 08:39:48;;;;;;;23.30;18.93;;;;;;;14.73;96.92;100034.09;5023708;28;20272;-68
2023/05/09 08:42:19;;;;;;;25.77;20.37;;;;;;;14.76;96.34;100034.53;5023791;28;20197;-68
2023/05/09 08:44:46;;;;;;;24.67;20.10;;;;;;;14.79;95.17;100039.44;5022497;28;20194;-69
2023/05/09 08:47:13;;;;;;;22.83;18.93;;;;;;;14.73;95.10;100026.91;5021805;28;20243;-68
2023/05/09 08:49:40;;;;;;;20.50;18.40;;;;;;;14.75;94.48;100043.53;5016719;28;20252;-68
2023/05/09 08:52:10;;;;;;;25.97;19.03;;;;;;;14.67;95.44;100035.75;5012794;28;20200;-67
2023/05/09 08:54:37;;;;;;;23.83;19.33;;;;;;;14.67;96.27;100041.09;5025868;28;20522;-67
2023/05/09 08:57:04;;;;;;;24.83;18.23;;;;;;;14.66;96.09;100033.31;5027925;28;20258;-66
2023/05/09 08:59:33;;;;;;;25.77;18.47;;;;;;;14.66;95.87;100027.97;5026568;28;20225;-68
2023/05/09 09:02:00;;;;;;;21.40;17.87;;;;;;;14.66;95.39;100034.13;5022006;28;20210;-68
2023/05/09 09:04:27;;;;;;;19.77;17.30;;;;;;;14.60;94.79;100045.66;5022198;28;20267;-65
2023/05/09 09:06:54;;;;;;;19.30;16.70;;;;;;;14.41;94.96;100041.16;5028418;28;20664;-66
2023/05/09 09:09:23;;;;;;;19.67;16.00;;;;;;;14.45;97.05;100037.03;5022206;28;20210;-66
2023/05/09 09:11:52;;;;;;;23.33;18.43;;;;;;;14.54;97.66;100030.44;5019923;28;20197;-68
2023/05/09 09:14:24;;;;;;;26.13;19.37;;;;;;;14.61;97.04;100035.75;5019145;28;20201;-68
2023/05/09 09:16:52;;;;;;;23.20;18.50;;;;;;;14.75;97.08;100032.84;5019908;28;20188;-67
2023/05/09 09:19:22;;;;;;;27.53;19.53;;;;;;;14.88;96.53;100035.50;5029929;28;20220;-65
2023/05/09 09:21:52;;;;;;;23.00;19.03;;;;;;;14.96;95.63;100043.28;5032159;28;20193;-66
2023/05/09 09:24:23;;;;;;;23.70;19.23;;;;;;;14.90;93.13;100036.13;5031652;28;20542;-65
2023/05/09 09:26:51;;;;;;;26.50;18.67;;;;;;;14.86;92.78;100039.41;5030544;28;20189;-68
2023/05/09 09:29:19;;;;;;;25.87;17.33;;;;;;;14.86;92.77;100034.88;5031888;28;20282;-65
2023/05/09 09:31:46;;;;;;;25.70;17.30;;;;;;;14.72;93.67;100030.63;5032016;28;20712;-67
2023/05/09 09:34:19;;;;;;;19.73;16.87;;;;;;;14.77;93.54;100036.16;5020360;28;20194;-65
2023/05/09 09:36:47;;;;;;;19.83;16.00;;;;;;;14.81;93.54;100032.03;5021554;28;20327;-66
2023/05/09 09:39:14;;;;;;;22.50;16.60;;;;;;;14.97;94.51;100030.75;5031508;28;20213;-66
2023/05/09 09:41:43;;;;;;;17.37;15.27;;;;;;;15.07;93.36;100037.28;5036196;28;20248;-66
2023/05/09 09:44:11;;;;;;;20.23;17.07;;;;;;;15.11;91.75;100032.34;5036082;28;20201;-66
2023/05/09 09:46:45;;;;;;;19.17;15.80;;;;;;;15.24;92.52;100032.28;5025090;28;20232;-66
2023/05/09 09:49:12;;;;;;;21.03;16.27;;;;;;;15.34;91.94;100030.84;5015967;28;20627;-66
2023/05/09 09:51:39;;;;;;;16.70;14.80;;;;;;;15.46;90.62;100028.28;5018479;28;20252;-67
2023/05/09 09:54:07;;;;;;;16.67;14.73;;;;;;;15.48;90.13;100027.03;5032710;28;20223;-66
2023/05/09 09:56:47;;;;;;;16.70;15.13;;;;;;;15.43;88.69;100032.22;5034368;28;20196;-66
2023/05/09 09:59:16;;;;;;;20.97;14.70;;;;;;;15.50;88.99;100026.81;5035644;28;20241;-67
2023/05/09 10:02:00;;;;;;;20.33;16.17;;;;;;;15.41;88.71;100028.13;5036070;28;20200;-67
2023/05/09 10:04:29;;;;;;;18.43;16.63;;;;;;;15.28;87.89;100042.34;5025548;28;20225;-67
2023/05/09 10:06:58;;;;;;;25.80;18.37;;;;;;;15.28;88.63;100036.97;5025974;28;20407;-67
2023/05/09 10:09:25;;;;;;;29.43;18.40;;;;;;;15.24;88.79;100019.72;5035501;28;20193;-67
2023/05/09 10:11:55;;;;;;;25.63;19.10;;;;;;;15.44;89.66;100030.38;5020046;28;20198;-66
2023/05/09 10:14:23;;;;;;;22.30;18.37;;;;;;;15.58;88.95;100032.75;5023995;28;20190;-67
2023/05/09 10:16:52;;;;;;;27.60;18.73;;;;;;;15.71;88.10;100042.56;5025177;28;20210;-67
2023/05/09 10:19:20;;;;;;;24.93;19.10;;;;;;;15.70;86.85;100039.06;5025004;28;20268;-67
2023/05/09 10:21:53;;;;;;;38.27;20.73;;;;;;;15.63;86.91;100042.81;5024020;28;20691;-67
2023/05/09 10:24:27;;;;;;;20.03;17.60;;;;;;;15.51;88.18;100048.03;5024516;28;20638;-67
2023/05/09 10:27:04;;;;;;;24.03;18.63;;;;;;;15.70;88.12;100038.25;5023134;28;20274;-67
2023/05/09 10:29:35;;;;;;;21.07;17.73;;;;;;;15.76;86.44;100048.09;5023739;28;20253;-68
2023/05/09 10:32:12;;;;;;;36.27;28.33;;;;;;;15.42;86.20;100046.66;5024519;28;20239;-69
2023/05/09 10:34:42;;;;;;;20.43;18.07;;;;;;;15.54;86.74;100038.75;5023369;28;20267;-66
2023/05/09 10:37:09;;;;;;;24.40;18.43;;;;;;;15.42;87.16;100046.66;5021975;28;20638;-67
2023/05/09 10:39:37;;;;;;;52.77;34.87;;;;;;;15.42;87.51;100043.97;5023037;28;20249;-66
2023/05/09 10:42:05;;;;;;;51.13;32.47;;;;;;;15.45;86.11;100056.09;5026000;28;20201;-66
2023/05/09 10:44:33;;;;;;;45.60;28.33;;;;;;;15.43;86.10;100037.56;5020452;28;20276;-66
2023/05/09 10:47:01;;;;;;;26.10;18.40;;;;;;;15.55;85.97;100068.00;5019494;28;20194;-66
2023/05/09 10:49:28;;;;;;;27.70;16.70;;;;;;;15.55;86.28;100053.78;5023439;28;20197;-67
2023/05/09 10:51:55;;;;;;;19.93;17.13;;;;;;;15.55;85.31;100057.28;5034010;28;20327;-66
2023/05/09 10:54:30;;;;;;;17.00;15.23;;;;;;;15.52;85.36;100047.00;5034050;28;20194;-66
2023/05/09 10:56:57;;;;;;;18.17;15.00;;;;;;;15.58;85.79;100054.19;5030865;28;20193;-67
2023/05/09 10:59:36;;;;;;;20.60;14.90;;;;;;;15.57;85.97;100054.41;5014612;28;20226;-66
2023/05/09 11:02:03;;;;;;;17.00;14.63;;;;;;;15.62;86.35;100041.19;5014865;28;20577;-67
2023/05/09 11:04:31;;;;;;;17.10;13.90;;;;;;;15.62;86.16;100051.88;5025152;28;20205;-68
2023/05/09 11:06:59;;;;;;;13.87;12.37;;;;;;;15.60;86.09;100028.00;5034781;28;20657;-66
2023/05/09 11:09:32;;;;;;;13.80;12.50;;;;;;;15.68;87.01;100046.50;5033120;28;20193;-66
2023/05/09 11:12:07;;;;;;;13.73;12.30;;;;;;;15.74;86.80;100044.81;5034607;28;20189;-67
2023/05/09 11:14:41;;;;;;;13.77;12.33;;;;;;;15.61;85.72;100045.69;5033438;28;20722;-66